sensor_id;sensor_type;location;lat;lon;timestamp;P1;durP1;ratioP1;P2;durP2;ratioP2
52470;SDS011;38382;53.160;7.026;2022-07-04T00:00:13;5.18;;;2.78;;
52470;SDS011;38382;53.160;7.026;2022-07-04T00:02:40;4.95;;;3.08;;
52470;SDS011;38382;53.160;7.026;2022-07-04T00:05:07;5.03;;;2.45;;
52470;SDS011;38382;53.160;7.026;2022-07-04T00:07:38;6.00;;;2.60;;
52470;SDS011;38382;53.160;7.026;2022-07-04T00:10:06;5.43;;;2.55;;
52470;SDS011;38382;53.160;7.026;2022-07-04T00:12:32;5.13;;;2.60;;
52470;SDS011;38382;53.160;7.026;2022-07-04T00:14:58;9.07;;;2.10;;
52470;SDS011;38382;53.160;7.026;2022-07-04T00:17:25;6.18;;;3.10;;
52470;SDS011;38382;53.160;7.026;2022-07-04T00:19:50;6.07;;;2.85;;
52470;SDS011;38382;53.160;7.026;2022-07-04T00:22:16;4.05;;;2.25;;
52470;SDS011;38382;53.160;7.026;2022-07-04T00:24:42;5.20;;;2.58;;
52470;SDS011;38382;53.160;7.026;2022-07-04T00:27:08;3.92;;;2.35;;
52470;SDS011;38382;53.160;7.026;2022-07-04T00:29:34;3.53;;;2.13;;
52470;SDS011;38382;53.160;7.026;2022-07-04T00:32:00;3.28;;;2.08;;
52470;SDS011;38382;53.160;7.026;2022-07-04T00:34:26;4.60;;;2.03;;
52470;SDS011;38382;53.160;7.026;2022-07-04T00:36:52;3.80;;;2.15;;
52470;SDS011;38382;53.160;7.026;2022-07-04T00:39:18;6.60;;;2.22;;
52470;SDS011;38382;53.160;7.026;2022-07-04T00:41:44;4.05;;;2.00;;
52470;SDS011;38382;53.160;7.026;2022-07-04T00:44:10;4.18;;;2.45;;
52470;SDS011;38382;53.160;7.026;2022-07-04T00:46:37;4.63;;;2.58;;
52470;SDS011;38382;53.160;7.026;2022-07-04T00:49:05;5.72;;;2.90;;
52470;SDS011;38382;53.160;7.026;2022-07-04T00:51:31;5.68;;;2.45;;
52470;SDS011;38382;53.160;7.026;2022-07-04T00:53:58;6.03;;;2.85;;
52470;SDS011;38382;53.160;7.026;2022-07-04T00:56:25;6.25;;;2.97;;
52470;SDS011;38382;53.160;7.026;2022-07-04T00:58:52;4.68;;;2.10;;
52470;SDS011;38382;53.160;7.026;2022-07-04T01:01:18;4.95;;;2.90;;
52470;SDS011;38382;53.160;7.026;2022-07-04T01:03:45;5.22;;;2.58;;
52470;SDS011;38382;53.160;7.026;2022-07-04T01:06:11;6.32;;;2.40;;
52470;SDS011;38382;53.160;7.026;2022-07-04T01:08:39;4.47;;;2.10;;
52470;SDS011;38382;53.160;7.026;2022-07-04T01:11:06;6.82;;;2.70;;
52470;SDS011;38382;53.160;7.026;2022-07-04T01:13:32;5.18;;;2.40;;
52470;SDS011;38382;53.160;7.026;2022-07-04T01:15:59;5.80;;;2.85;;
52470;SDS011;38382;53.160;7.026;2022-07-04T01:18:25;4.18;;;2.42;;
52470;SDS011;38382;53.160;7.026;2022-07-04T01:20:51;4.57;;;2.60;;
52470;SDS011;38382;53.160;7.026;2022-07-04T01:23:16;6.10;;;3.00;;
52470;SDS011;38382;53.160;7.026;2022-07-04T01:25:42;6.18;;;2.88;;
52470;SDS011;38382;53.160;7.026;2022-07-04T01:28:08;4.93;;;2.30;;
52470;SDS011;38382;53.160;7.026;2022-07-04T01:30:35;3.65;;;2.40;;
52470;SDS011;38382;53.160;7.026;2022-07-04T01:33:02;5.28;;;2.75;;
52470;SDS011;38382;53.160;7.026;2022-07-04T01:35:29;5.38;;;2.30;;
52470;SDS011;38382;53.160;7.026;2022-07-04T01:37:55;4.97;;;2.40;;
52470;SDS011;38382;53.160;7.026;2022-07-04T01:40:21;6.80;;;3.40;;
52470;SDS011;38382;53.160;7.026;2022-07-04T01:42:47;6.43;;;2.72;;
52470;SDS011;38382;53.160;7.026;2022-07-04T01:45:13;6.57;;;2.85;;
52470;SDS011;38382;53.160;7.026;2022-07-04T01:47:39;3.92;;;2.40;;
52470;SDS011;38382;53.160;7.026;2022-07-04T01:54:21;7.25;;;3.10;;
52470;SDS011;38382;53.160;7.026;2022-07-04T02:04:47;4.28;;;3.03;;
52470;SDS011;38382;53.160;7.026;2022-07-04T02:07:13;6.97;;;2.90;;
52470;SDS011;38382;53.160;7.026;2022-07-04T02:09:38;7.47;;;2.78;;
52470;SDS011;38382;53.160;7.026;2022-07-04T02:12:04;5.78;;;3.03;;
52470;SDS011;38382;53.160;7.026;2022-07-04T02:14:48;5.88;;;2.47;;
52470;SDS011;38382;53.160;7.026;2022-07-04T02:17:14;8.05;;;3.25;;
52470;SDS011;38382;53.160;7.026;2022-07-04T02:22:09;6.20;;;3.45;;
52470;SDS011;38382;53.160;7.026;2022-07-04T02:24:34;5.05;;;3.00;;
52470;SDS011;38382;53.160;7.026;2022-07-04T02:27:00;5.63;;;2.97;;
52470;SDS011;38382;53.160;7.026;2022-07-04T02:29:26;3.83;;;2.40;;
52470;SDS011;38382;53.160;7.026;2022-07-04T02:31:52;10.25;;;3.58;;
52470;SDS011;38382;53.160;7.026;2022-07-04T02:34:18;8.23;;;3.67;;
52470;SDS011;38382;53.160;7.026;2022-07-04T02:36:43;8.15;;;3.88;;
52470;SDS011;38382;53.160;7.026;2022-07-04T02:39:09;5.85;;;2.38;;
52470;SDS011;38382;53.160;7.026;2022-07-04T02:41:35;5.55;;;2.80;;
52470;SDS011;38382;53.160;7.026;2022-07-04T02:44:00;8.75;;;3.92;;
52470;SDS011;38382;53.160;7.026;2022-07-04T02:46:26;8.73;;;4.32;;
52470;SDS011;38382;53.160;7.026;2022-07-04T02:48:52;7.10;;;3.40;;
52470;SDS011;38382;53.160;7.026;2022-07-04T02:51:20;8.93;;;4.10;;
52470;SDS011;38382;53.160;7.026;2022-07-04T02:53:45;5.72;;;3.75;;
52470;SDS011;38382;53.160;7.026;2022-07-04T02:56:11;9.40;;;4.43;;
52470;SDS011;38382;53.160;7.026;2022-07-04T02:58:37;7.47;;;3.97;;
52470;SDS011;38382;53.160;7.026;2022-07-04T03:01:02;7.07;;;3.92;;
52470;SDS011;38382;53.160;7.026;2022-07-04T03:03:28;8.02;;;4.65;;
52470;SDS011;38382;53.160;7.026;2022-07-04T03:05:54;10.23;;;4.80;;
52470;SDS011;38382;53.160;7.026;2022-07-04T03:08:19;8.43;;;4.00;;
52470;SDS011;38382;53.160;7.026;2022-07-04T03:10:45;8.25;;;4.55;;
52470;SDS011;38382;53.160;7.026;2022-07-04T03:13:11;8.18;;;4.30;;
52470;SDS011;38382;53.160;7.026;2022-07-04T03:15:37;8.15;;;3.78;;
52470;SDS011;38382;53.160;7.026;2022-07-04T03:18:02;5.10;;;3.22;;
52470;SDS011;38382;53.160;7.026;2022-07-04T03:20:28;6.10;;;2.92;;
52470;SDS011;38382;53.160;7.026;2022-07-04T03:22:54;6.53;;;3.35;;
52470;SDS011;38382;53.160;7.026;2022-07-04T03:25:20;8.68;;;4.25;;
52470;SDS011;38382;53.160;7.026;2022-07-04T03:27:46;7.15;;;4.00;;
52470;SDS011;38382;53.160;7.026;2022-07-04T03:30:12;6.47;;;3.75;;
52470;SDS011;38382;53.160;7.026;2022-07-04T03:32:38;8.30;;;4.45;;
52470;SDS011;38382;53.160;7.026;2022-07-04T03:35:04;8.35;;;4.38;;
52470;SDS011;38382;53.160;7.026;2022-07-04T03:37:30;7.68;;;4.38;;
52470;SDS011;38382;53.160;7.026;2022-07-04T03:39:56;5.18;;;3.60;;
52470;SDS011;38382;53.160;7.026;2022-07-04T03:42:21;6.53;;;2.58;;
52470;SDS011;38382;53.160;7.026;2022-07-04T03:44:47;7.53;;;4.38;;
52470;SDS011;38382;53.160;7.026;2022-07-04T03:47:13;9.20;;;4.82;;
52470;SDS011;38382;53.160;7.026;2022-07-04T03:52:08;8.65;;;4.28;;
52470;SDS011;38382;53.160;7.026;2022-07-04T03:54:34;9.07;;;5.05;;
52470;SDS011;38382;53.160;7.026;2022-07-04T03:57:00;8.52;;;4.70;;
52470;SDS011;38382;53.160;7.026;2022-07-04T03:59:25;6.65;;;3.65;;
52470;SDS011;38382;53.160;7.026;2022-07-04T04:01:51;6.60;;;4.18;;
52470;SDS011;38382;53.160;7.026;2022-07-04T04:04:17;9.65;;;5.45;;
52470;SDS011;38382;53.160;7.026;2022-07-04T04:07:01;6.22;;;4.45;;
52470;SDS011;38382;53.160;7.026;2022-07-04T04:09:27;8.50;;;5.25;;
52470;SDS011;38382;53.160;7.026;2022-07-04T04:11:53;7.32;;;4.50;;
52470;SDS011;38382;53.160;7.026;2022-07-04T04:14:19;7.05;;;4.63;;
52470;SDS011;38382;53.160;7.026;2022-07-04T04:16:44;6.57;;;3.72;;
52470;SDS011;38382;53.160;7.026;2022-07-04T04:19:12;4.93;;;3.63;;
52470;SDS011;38382;53.160;7.026;2022-07-04T04:21:38;7.85;;;5.07;;
52470;SDS011;38382;53.160;7.026;2022-07-04T04:24:04;11.10;;;6.03;;
52470;SDS011;38382;53.160;7.026;2022-07-04T04:26:29;9.45;;;5.05;;
52470;SDS011;38382;53.160;7.026;2022-07-04T04:28:55;8.85;;;5.93;;
52470;SDS011;38382;53.160;7.026;2022-07-04T04:31:21;9.50;;;5.35;;
52470;SDS011;38382;53.160;7.026;2022-07-04T04:33:47;9.80;;;6.53;;
52470;SDS011;38382;53.160;7.026;2022-07-04T04:36:13;12.38;;;6.10;;
52470;SDS011;38382;53.160;7.026;2022-07-04T04:38:38;8.40;;;5.63;;
52470;SDS011;38382;53.160;7.026;2022-07-04T04:41:04;8.77;;;5.38;;
52470;SDS011;38382;53.160;7.026;2022-07-04T04:43:30;7.40;;;4.95;;
52470;SDS011;38382;53.160;7.026;2022-07-04T04:45:56;8.45;;;5.40;;
52470;SDS011;38382;53.160;7.026;2022-07-04T04:48:21;7.68;;;4.95;;
52470;SDS011;38382;53.160;7.026;2022-07-04T04:50:47;10.93;;;5.70;;
52470;SDS011;38382;53.160;7.026;2022-07-04T04:53:13;8.55;;;6.10;;
52470;SDS011;38382;53.160;7.026;2022-07-04T04:55:39;9.60;;;5.57;;
52470;SDS011;38382;53.160;7.026;2022-07-04T04:58:04;8.98;;;5.75;;
52470;SDS011;38382;53.160;7.026;2022-07-04T05:00:30;8.27;;;5.50;;
52470;SDS011;38382;53.160;7.026;2022-07-04T05:02:56;11.27;;;6.00;;
52470;SDS011;38382;53.160;7.026;2022-07-04T05:05:22;13.00;;;5.68;;
52470;SDS011;38382;53.160;7.026;2022-07-04T05:07:48;12.80;;;6.18;;
52470;SDS011;38382;53.160;7.026;2022-07-04T05:10:14;8.13;;;5.68;;
52470;SDS011;38382;53.160;7.026;2022-07-04T05:12:41;9.23;;;5.55;;
52470;SDS011;38382;53.160;7.026;2022-07-04T05:15:11;9.05;;;6.00;;
52470;SDS011;38382;53.160;7.026;2022-07-04T05:17:36;6.30;;;4.65;;
52470;SDS011;38382;53.160;7.026;2022-07-04T05:20:02;11.38;;;5.80;;
52470;SDS011;38382;53.160;7.026;2022-07-04T05:22:28;8.77;;;4.82;;
52470;SDS011;38382;53.160;7.026;2022-07-04T05:24:54;9.57;;;4.28;;
52470;SDS011;38382;53.160;7.026;2022-07-04T05:27:20;8.02;;;5.32;;
52470;SDS011;38382;53.160;7.026;2022-07-04T05:29:46;8.27;;;4.72;;
52470;SDS011;38382;53.160;7.026;2022-07-04T05:32:11;9.27;;;5.28;;
52470;SDS011;38382;53.160;7.026;2022-07-04T05:34:37;10.45;;;5.10;;
52470;SDS011;38382;53.160;7.026;2022-07-04T05:37:03;10.88;;;6.00;;
52470;SDS011;38382;53.160;7.026;2022-07-04T05:39:28;10.07;;;5.82;;
52470;SDS011;38382;53.160;7.026;2022-07-04T05:41:55;7.35;;;4.72;;
52470;SDS011;38382;53.160;7.026;2022-07-04T05:44:20;10.18;;;6.47;;
52470;SDS011;38382;53.160;7.026;2022-07-04T05:46:46;6.90;;;5.28;;
52470;SDS011;38382;53.160;7.026;2022-07-04T05:49:12;9.77;;;5.38;;
52470;SDS011;38382;53.160;7.026;2022-07-04T05:51:38;8.93;;;5.30;;
52470;SDS011;38382;53.160;7.026;2022-07-04T05:54:04;8.77;;;5.53;;
52470;SDS011;38382;53.160;7.026;2022-07-04T05:56:29;9.07;;;5.70;;
52470;SDS011;38382;53.160;7.026;2022-07-04T05:58:55;10.73;;;5.47;;
52470;SDS011;38382;53.160;7.026;2022-07-04T06:01:21;10.65;;;6.47;;
52470;SDS011;38382;53.160;7.026;2022-07-04T06:03:47;11.05;;;5.70;;
52470;SDS011;38382;53.160;7.026;2022-07-04T06:06:13;9.95;;;5.07;;
52470;SDS011;38382;53.160;7.026;2022-07-04T06:08:40;9.38;;;6.30;;
52470;SDS011;38382;53.160;7.026;2022-07-04T06:11:06;10.48;;;5.82;;
52470;SDS011;38382;53.160;7.026;2022-07-04T06:13:32;9.05;;;6.13;;
52470;SDS011;38382;53.160;7.026;2022-07-04T06:15:57;11.80;;;7.13;;
52470;SDS011;38382;53.160;7.026;2022-07-04T06:18:23;9.82;;;6.00;;
52470;SDS011;38382;53.160;7.026;2022-07-04T06:20:49;10.90;;;7.15;;
52470;SDS011;38382;53.160;7.026;2022-07-04T06:23:15;11.13;;;6.30;;
52470;SDS011;38382;53.160;7.026;2022-07-04T06:25:41;10.15;;;5.50;;
52470;SDS011;38382;53.160;7.026;2022-07-04T06:28:06;10.20;;;6.03;;
52470;SDS011;38382;53.160;7.026;2022-07-04T06:30:32;10.65;;;6.72;;
52470;SDS011;38382;53.160;7.026;2022-07-04T06:32:58;10.88;;;6.40;;
52470;SDS011;38382;53.160;7.026;2022-07-04T06:35:28;11.77;;;6.60;;
52470;SDS011;38382;53.160;7.026;2022-07-04T06:38:11;10.70;;;6.25;;
52470;SDS011;38382;53.160;7.026;2022-07-04T06:40:39;14.30;;;7.13;;
52470;SDS011;38382;53.160;7.026;2022-07-04T06:43:05;15.75;;;6.70;;
52470;SDS011;38382;53.160;7.026;2022-07-04T06:45:31;12.18;;;7.10;;
52470;SDS011;38382;53.160;7.026;2022-07-04T06:47:58;11.90;;;7.00;;
52470;SDS011;38382;53.160;7.026;2022-07-04T06:50:25;12.48;;;6.70;;
52470;SDS011;38382;53.160;7.026;2022-07-04T06:52:51;11.30;;;6.55;;
52470;SDS011;38382;53.160;7.026;2022-07-04T06:55:16;10.98;;;5.68;;
52470;SDS011;38382;53.160;7.026;2022-07-04T06:57:42;9.52;;;5.60;;
52470;SDS011;38382;53.160;7.026;2022-07-04T07:00:08;10.80;;;5.53;;
52470;SDS011;38382;53.160;7.026;2022-07-04T07:02:35;7.63;;;5.25;;
52470;SDS011;38382;53.160;7.026;2022-07-04T07:05:00;7.47;;;4.70;;
52470;SDS011;38382;53.160;7.026;2022-07-04T07:07:26;10.57;;;5.28;;
52470;SDS011;38382;53.160;7.026;2022-07-04T07:09:53;8.82;;;4.28;;
52470;SDS011;38382;53.160;7.026;2022-07-04T07:12:19;8.82;;;5.53;;
52470;SDS011;38382;53.160;7.026;2022-07-04T07:14:45;9.52;;;4.97;;
52470;SDS011;38382;53.160;7.026;2022-07-04T07:17:11;8.38;;;4.90;;
52470;SDS011;38382;53.160;7.026;2022-07-04T07:22:11;8.32;;;4.18;;
52470;SDS011;38382;53.160;7.026;2022-07-04T07:24:37;11.70;;;4.05;;
52470;SDS011;38382;53.160;7.026;2022-07-04T07:27:03;10.52;;;4.40;;
52470;SDS011;38382;53.160;7.026;2022-07-04T07:29:29;6.85;;;4.72;;
52470;SDS011;38382;53.160;7.026;2022-07-04T07:31:55;10.77;;;3.80;;
52470;SDS011;38382;53.160;7.026;2022-07-04T07:34:21;8.52;;;3.72;;
52470;SDS011;38382;53.160;7.026;2022-07-04T07:36:47;6.47;;;3.60;;
52470;SDS011;38382;53.160;7.026;2022-07-04T07:39:13;7.25;;;3.10;;
52470;SDS011;38382;53.160;7.026;2022-07-04T07:41:38;8.18;;;3.45;;
52470;SDS011;38382;53.160;7.026;2022-07-04T07:44:04;9.73;;;3.80;;
52470;SDS011;38382;53.160;7.026;2022-07-04T07:46:30;10.90;;;3.28;;
52470;SDS011;38382;53.160;7.026;2022-07-04T07:48:56;7.60;;;3.10;;
52470;SDS011;38382;53.160;7.026;2022-07-04T07:51:22;7.85;;;3.25;;
52470;SDS011;38382;53.160;7.026;2022-07-04T07:53:47;7.50;;;3.10;;
52470;SDS011;38382;53.160;7.026;2022-07-04T07:56:13;12.52;;;3.60;;
52470;SDS011;38382;53.160;7.026;2022-07-04T07:58:39;8.60;;;3.00;;
52470;SDS011;38382;53.160;7.026;2022-07-04T08:01:04;6.45;;;2.60;;
52470;SDS011;38382;53.160;7.026;2022-07-04T08:03:30;10.15;;;2.90;;
52470;SDS011;38382;53.160;7.026;2022-07-04T08:06:14;5.57;;;2.72;;
52470;SDS011;38382;53.160;7.026;2022-07-04T08:08:41;12.27;;;3.50;;
52470;SDS011;38382;53.160;7.026;2022-07-04T08:11:08;11.10;;;3.10;;
52470;SDS011;38382;53.160;7.026;2022-07-04T08:13:34;8.63;;;2.85;;
52470;SDS011;38382;53.160;7.026;2022-07-04T08:16:00;5.97;;;2.38;;
52470;SDS011;38382;53.160;7.026;2022-07-04T08:18:26;7.05;;;2.70;;
52470;SDS011;38382;53.160;7.026;2022-07-04T08:20:52;7.80;;;2.47;;
52470;SDS011;38382;53.160;7.026;2022-07-04T08:23:18;6.35;;;2.60;;
52470;SDS011;38382;53.160;7.026;2022-07-04T08:25:44;8.13;;;2.45;;
52470;SDS011;38382;53.160;7.026;2022-07-04T08:28:09;7.82;;;2.40;;
52470;SDS011;38382;53.160;7.026;2022-07-04T08:30:35;8.63;;;2.58;;
52470;SDS011;38382;53.160;7.026;2022-07-04T08:33:01;8.48;;;2.05;;
52470;SDS011;38382;53.160;7.026;2022-07-04T08:35:27;5.40;;;2.17;;
52470;SDS011;38382;53.160;7.026;2022-07-04T08:37:53;7.38;;;2.00;;
52470;SDS011;38382;53.160;7.026;2022-07-04T08:40:24;5.70;;;2.42;;
52470;SDS011;38382;53.160;7.026;2022-07-04T08:42:51;7.90;;;2.53;;
52470;SDS011;38382;53.160;7.026;2022-07-04T08:45:18;7.90;;;2.30;;
52470;SDS011;38382;53.160;7.026;2022-07-04T08:48:01;4.93;;;2.22;;
52470;SDS011;38382;53.160;7.026;2022-07-04T08:50:30;7.93;;;2.70;;
52470;SDS011;38382;53.160;7.026;2022-07-04T08:53:02;6.03;;;1.92;;
52470;SDS011;38382;53.160;7.026;2022-07-04T08:55:35;8.20;;;2.80;;
52470;SDS011;38382;53.160;7.026;2022-07-04T08:58:19;7.85;;;2.08;;
52470;SDS011;38382;53.160;7.026;2022-07-04T09:00:55;6.22;;;2.22;;
52470;SDS011;38382;53.160;7.026;2022-07-04T09:03:22;4.50;;;1.95;;
52470;SDS011;38382;53.160;7.026;2022-07-04T09:05:49;6.53;;;2.00;;
52470;SDS011;38382;53.160;7.026;2022-07-04T09:08:15;4.90;;;2.05;;
52470;SDS011;38382;53.160;7.026;2022-07-04T09:10:41;7.97;;;2.25;;
52470;SDS011;38382;53.160;7.026;2022-07-04T09:13:08;6.80;;;2.40;;
52470;SDS011;38382;53.160;7.026;2022-07-04T09:15:35;8.68;;;2.70;;
52470;SDS011;38382;53.160;7.026;2022-07-04T09:18:01;7.43;;;1.90;;
52470;SDS011;38382;53.160;7.026;2022-07-04T09:20:28;6.80;;;2.08;;
52470;SDS011;38382;53.160;7.026;2022-07-04T09:22:55;7.13;;;1.95;;
52470;SDS011;38382;53.160;7.026;2022-07-04T09:25:21;7.10;;;2.20;;
52470;SDS011;38382;53.160;7.026;2022-07-04T09:27:50;6.63;;;1.90;;
52470;SDS011;38382;53.160;7.026;2022-07-04T09:30:18;4.07;;;1.98;;
52470;SDS011;38382;53.160;7.026;2022-07-04T09:32:46;3.70;;;1.63;;
52470;SDS011;38382;53.160;7.026;2022-07-04T09:35:21;4.45;;;1.50;;
52470;SDS011;38382;53.160;7.026;2022-07-04T09:37:49;3.40;;;1.60;;
52470;SDS011;38382;53.160;7.026;2022-07-04T09:40:51;5.15;;;1.88;;
52470;SDS011;38382;53.160;7.026;2022-07-04T09:43:40;7.35;;;1.92;;
52470;SDS011;38382;53.160;7.026;2022-07-04T09:46:32;4.80;;;1.65;;
52470;SDS011;38382;53.160;7.026;2022-07-04T09:48:58;4.03;;;1.70;;
52470;SDS011;38382;53.160;7.026;2022-07-04T09:51:41;6.55;;;1.90;;
52470;SDS011;38382;53.160;7.026;2022-07-04T09:56:47;4.95;;;1.67;;
52470;SDS011;38382;53.160;7.026;2022-07-04T09:59:14;4.65;;;1.70;;
52470;SDS011;38382;53.160;7.026;2022-07-04T10:01:40;3.20;;;1.50;;
52470;SDS011;38382;53.160;7.026;2022-07-04T10:04:06;3.88;;;1.80;;
52470;SDS011;38382;53.160;7.026;2022-07-04T10:06:34;4.00;;;1.90;;
52470;SDS011;38382;53.160;7.026;2022-07-04T10:09:10;10.82;;;1.95;;
52470;SDS011;38382;53.160;7.026;2022-07-04T10:11:40;4.53;;;1.60;;
52470;SDS011;38382;53.160;7.026;2022-07-04T10:14:08;4.03;;;1.80;;
52470;SDS011;38382;53.160;7.026;2022-07-04T10:16:35;3.78;;;1.60;;
52470;SDS011;38382;53.160;7.026;2022-07-04T10:19:03;4.13;;;1.85;;
52470;SDS011;38382;53.160;7.026;2022-07-04T10:50:34;3.08;;;1.50;;
52470;SDS011;38382;53.160;7.026;2022-07-04T10:53:09;4.07;;;1.60;;
52470;SDS011;38382;53.160;7.026;2022-07-04T10:55:35;4.20;;;2.10;;
52470;SDS011;38382;53.160;7.026;2022-07-04T10:58:01;6.03;;;1.90;;
52470;SDS011;38382;53.160;7.026;2022-07-04T11:00:26;3.15;;;1.52;;
52470;SDS011;38382;53.160;7.026;2022-07-04T11:02:53;4.22;;;1.65;;
52470;SDS011;38382;53.160;7.026;2022-07-04T11:05:42;3.65;;;1.58;;
52470;SDS011;38382;53.160;7.026;2022-07-04T11:08:08;5.80;;;1.83;;
52470;SDS011;38382;53.160;7.026;2022-07-04T11:10:36;4.25;;;1.50;;
52470;SDS011;38382;53.160;7.026;2022-07-04T11:13:06;3.38;;;1.40;;
52470;SDS011;38382;53.160;7.026;2022-07-04T11:17:59;2.78;;;1.58;;
52470;SDS011;38382;53.160;7.026;2022-07-04T11:20:33;2.85;;;1.50;;
52470;SDS011;38382;53.160;7.026;2022-07-04T11:23:07;3.25;;;1.50;;
52470;SDS011;38382;53.160;7.026;2022-07-04T11:25:34;2.60;;;1.48;;
52470;SDS011;38382;53.160;7.026;2022-07-04T11:30:55;2.88;;;1.60;;
52470;SDS011;38382;53.160;7.026;2022-07-04T11:33:23;3.70;;;1.40;;
52470;SDS011;38382;53.160;7.026;2022-07-04T11:41:16;3.63;;;1.38;;
52470;SDS011;38382;53.160;7.026;2022-07-04T11:44:08;5.50;;;1.40;;
52470;SDS011;38382;53.160;7.026;2022-07-04T11:47:01;3.95;;;1.40;;
52470;SDS011;38382;53.160;7.026;2022-07-04T11:52:03;4.05;;;1.70;;
52470;SDS011;38382;53.160;7.026;2022-07-04T11:54:29;4.05;;;1.70;;
52470;SDS011;38382;53.160;7.026;2022-07-04T11:57:11;3.90;;;1.58;;
52470;SDS011;38382;53.160;7.026;2022-07-04T11:59:38;5.03;;;1.55;;
52470;SDS011;38382;53.160;7.026;2022-07-04T12:02:13;3.47;;;1.50;;
52470;SDS011;38382;53.160;7.026;2022-07-04T12:04:41;5.95;;;1.50;;
52470;SDS011;38382;53.160;7.026;2022-07-04T12:07:11;3.28;;;1.60;;
52470;SDS011;38382;53.160;7.026;2022-07-04T12:09:39;2.78;;;1.35;;
52470;SDS011;38382;53.160;7.026;2022-07-04T12:12:05;3.72;;;1.42;;
52470;SDS011;38382;53.160;7.026;2022-07-04T12:14:31;3.00;;;1.27;;
52470;SDS011;38382;53.160;7.026;2022-07-04T12:17:10;4.22;;;1.40;;
52470;SDS011;38382;53.160;7.026;2022-07-04T12:22:12;3.47;;;1.30;;
52470;SDS011;38382;53.160;7.026;2022-07-04T12:24:41;2.60;;;1.30;;
52470;SDS011;38382;53.160;7.026;2022-07-04T12:27:15;5.18;;;1.40;;
52470;SDS011;38382;53.160;7.026;2022-07-04T12:29:49;4.50;;;1.50;;
52470;SDS011;38382;53.160;7.026;2022-07-04T12:32:15;2.83;;;1.20;;
52470;SDS011;38382;53.160;7.026;2022-07-04T12:34:41;2.90;;;1.20;;
52470;SDS011;38382;53.160;7.026;2022-07-04T12:37:08;3.67;;;1.38;;
52470;SDS011;38382;53.160;7.026;2022-07-04T12:39:36;2.33;;;1.27;;
52470;SDS011;38382;53.160;7.026;2022-07-04T12:44:31;4.15;;;1.67;;
52470;SDS011;38382;53.160;7.026;2022-07-04T12:46:57;2.67;;;1.20;;
52470;SDS011;38382;53.160;7.026;2022-07-04T12:49:25;3.63;;;1.20;;
52470;SDS011;38382;53.160;7.026;2022-07-04T12:51:51;3.28;;;1.30;;
52470;SDS011;38382;53.160;7.026;2022-07-04T12:54:17;3.90;;;1.30;;
52470;SDS011;38382;53.160;7.026;2022-07-04T12:56:44;7.38;;;1.40;;
52470;SDS011;38382;53.160;7.026;2022-07-04T12:59:12;2.90;;;1.25;;
52470;SDS011;38382;53.160;7.026;2022-07-04T13:01:43;6.25;;;1.40;;
52470;SDS011;38382;53.160;7.026;2022-07-04T13:04:10;3.30;;;1.50;;
52470;SDS011;38382;53.160;7.026;2022-07-04T13:06:37;4.43;;;1.40;;
52470;SDS011;38382;53.160;7.026;2022-07-04T13:09:04;3.72;;;1.27;;
52470;SDS011;38382;53.160;7.026;2022-07-04T13:11:32;3.45;;;1.10;;
52470;SDS011;38382;53.160;7.026;2022-07-04T13:14:18;3.60;;;1.20;;
52470;SDS011;38382;53.160;7.026;2022-07-04T13:16:44;3.20;;;1.20;;
52470;SDS011;38382;53.160;7.026;2022-07-04T13:19:09;2.88;;;1.20;;
52470;SDS011;38382;53.160;7.026;2022-07-04T13:21:35;8.80;;;1.30;;
52470;SDS011;38382;53.160;7.026;2022-07-04T13:24:02;3.42;;;1.35;;
52470;SDS011;38382;53.160;7.026;2022-07-04T13:26:27;2.33;;;1.10;;
52470;SDS011;38382;53.160;7.026;2022-07-04T13:28:56;3.28;;;1.20;;
52470;SDS011;38382;53.160;7.026;2022-07-04T13:31:22;2.90;;;1.20;;
52470;SDS011;38382;53.160;7.026;2022-07-04T13:45:41;2.78;;;1.30;;
52470;SDS011;38382;53.160;7.026;2022-07-04T13:48:13;1.58;;;1.10;;
52470;SDS011;38382;53.160;7.026;2022-07-04T13:50:39;2.78;;;1.13;;
52470;SDS011;38382;53.160;7.026;2022-07-04T13:53:04;3.42;;;1.30;;
52470;SDS011;38382;53.160;7.026;2022-07-04T13:55:31;3.28;;;1.00;;
52470;SDS011;38382;53.160;7.026;2022-07-04T13:57:58;2.75;;;1.10;;
52470;SDS011;38382;53.160;7.026;2022-07-04T14:00:26;2.55;;;1.20;;
52470;SDS011;38382;53.160;7.026;2022-07-04T14:02:52;3.25;;;1.15;;
52470;SDS011;38382;53.160;7.026;2022-07-04T14:05:17;2.50;;;1.10;;
52470;SDS011;38382;53.160;7.026;2022-07-04T14:07:43;3.22;;;1.10;;
52470;SDS011;38382;53.160;7.026;2022-07-04T14:10:09;3.05;;;1.38;;
52470;SDS011;38382;53.160;7.026;2022-07-04T14:12:35;2.40;;;1.02;;
52470;SDS011;38382;53.160;7.026;2022-07-04T14:15:01;3.65;;;1.20;;
52470;SDS011;38382;53.160;7.026;2022-07-04T14:17:28;2.10;;;0.98;;
52470;SDS011;38382;53.160;7.026;2022-07-04T14:19:54;3.38;;;1.15;;
52470;SDS011;38382;53.160;7.026;2022-07-04T14:22:20;3.47;;;1.20;;
52470;SDS011;38382;53.160;7.026;2022-07-04T14:24:46;3.55;;;1.20;;
52470;SDS011;38382;53.160;7.026;2022-07-04T14:27:12;2.55;;;1.13;;
52470;SDS011;38382;53.160;7.026;2022-07-04T14:29:39;3.03;;;1.00;;
52470;SDS011;38382;53.160;7.026;2022-07-04T14:32:06;5.03;;;1.60;;
52470;SDS011;38382;53.160;7.026;2022-07-04T14:34:32;3.05;;;1.35;;
52470;SDS011;38382;53.160;7.026;2022-07-04T14:36:58;3.38;;;1.10;;
52470;SDS011;38382;53.160;7.026;2022-07-04T14:39:24;5.18;;;1.10;;
52470;SDS011;38382;53.160;7.026;2022-07-04T14:41:51;2.22;;;1.20;;
52470;SDS011;38382;53.160;7.026;2022-07-04T14:44:18;2.47;;;0.93;;
52470;SDS011;38382;53.160;7.026;2022-07-04T14:46:44;3.50;;;1.20;;
52470;SDS011;38382;53.160;7.026;2022-07-04T14:49:11;3.00;;;1.20;;
52470;SDS011;38382;53.160;7.026;2022-07-04T14:51:37;3.25;;;1.10;;
52470;SDS011;38382;53.160;7.026;2022-07-04T14:54:06;3.72;;;1.33;;
52470;SDS011;38382;53.160;7.026;2022-07-04T14:56:33;2.90;;;1.23;;
52470;SDS011;38382;53.160;7.026;2022-07-04T14:58:59;3.10;;;1.38;;
52470;SDS011;38382;53.160;7.026;2022-07-04T15:01:25;2.50;;;1.10;;
52470;SDS011;38382;53.160;7.026;2022-07-04T15:03:54;3.25;;;1.02;;
52470;SDS011;38382;53.160;7.026;2022-07-04T15:06:20;2.60;;;1.08;;
52470;SDS011;38382;53.160;7.026;2022-07-04T15:08:46;3.15;;;1.20;;
52470;SDS011;38382;53.160;7.026;2022-07-04T15:11:12;2.38;;;1.10;;
52470;SDS011;38382;53.160;7.026;2022-07-04T15:13:40;2.10;;;1.00;;
52470;SDS011;38382;53.160;7.026;2022-07-04T15:16:06;4.13;;;1.10;;
52470;SDS011;38382;53.160;7.026;2022-07-04T15:18:34;1.35;;;0.90;;
52470;SDS011;38382;53.160;7.026;2022-07-04T15:28:59;2.80;;;1.10;;
52470;SDS011;38382;53.160;7.026;2022-07-04T15:31:25;1.88;;;0.90;;
52470;SDS011;38382;53.160;7.026;2022-07-04T15:33:54;2.63;;;0.90;;
52470;SDS011;38382;53.160;7.026;2022-07-04T15:36:19;3.75;;;1.10;;
52470;SDS011;38382;53.160;7.026;2022-07-04T15:38:46;4.40;;;1.00;;
52470;SDS011;38382;53.160;7.026;2022-07-04T15:41:12;3.70;;;1.10;;
52470;SDS011;38382;53.160;7.026;2022-07-04T15:43:40;3.30;;;0.98;;
52470;SDS011;38382;53.160;7.026;2022-07-04T15:46:07;3.38;;;0.95;;
52470;SDS011;38382;53.160;7.026;2022-07-04T15:48:33;2.78;;;1.00;;
52470;SDS011;38382;53.160;7.026;2022-07-04T15:51:01;1.80;;;1.05;;
52470;SDS011;38382;53.160;7.026;2022-07-04T15:53:27;3.50;;;1.10;;
52470;SDS011;38382;53.160;7.026;2022-07-04T15:59:38;2.85;;;1.00;;
52470;SDS011;38382;53.160;7.026;2022-07-04T16:02:03;1.70;;;0.82;;
52470;SDS011;38382;53.160;7.026;2022-07-04T16:04:29;2.08;;;0.80;;
52470;SDS011;38382;53.160;7.026;2022-07-04T16:06:55;1.30;;;0.70;;
52470;SDS011;38382;53.160;7.026;2022-07-04T16:09:50;3.58;;;1.05;;
52470;SDS011;38382;53.160;7.026;2022-07-04T16:12:19;2.35;;;0.80;;
52470;SDS011;38382;53.160;7.026;2022-07-04T16:14:45;2.90;;;0.90;;
52470;SDS011;38382;53.160;7.026;2022-07-04T16:17:17;2.67;;;1.10;;
52470;SDS011;38382;53.160;7.026;2022-07-04T16:22:20;1.95;;;0.80;;